Time;durP1;ratioP1;P1;durP2;ratioP2;P2;SDS_P1;SDS_P2;PMS_P1;PMS_P2;Temp;Humidity;BMP_temperature;BMP_pressure;BME280_temperature;BME280_humidity;BME280_pressure;Samples;Min_cycle;Max_cycle;Signal;HPM_P1;HPM_P2
2022/05/04 00:03:14;;;;;;;4.47;4.17;;;15.70;30.00;;;;;;10306381;28;20234;-78
2022/05/04 00:08:17;;;;;;;4.00;3.70;;;15.80;30.80;;;;;;10313765;28;20306;-78
2022/05/04 00:13:20;;;;;;;3.60;3.40;;;15.70;30.30;;;;;;10312527;28;20610;-78
2022/05/04 00:18:25;;;;;;;4.13;3.83;;;15.70;30.30;;;;;;10312364;28;20704;-78
2022/05/04 00:23:28;;;;;;;4.60;3.37;;;15.60;30.90;;;;;;10310757;28;20227;-78
2022/05/04 00:28:31;;;;;;;3.90;3.60;;;15.40;30.80;;;;;;10309873;28;20700;-78
2022/05/04 00:33:36;;;;;;;4.10;3.70;;;15.30;30.80;;;;;;10310025;28;20223;-79
2022/05/04 00:38:39;;;;;;;4.00;3.67;;;15.30;31.60;;;;;;10309327;28;20630;-78
2022/05/04 00:43:50;;;;;;;4.20;3.90;;;15.20;31.20;;;;;;10306502;28;20817;-78
2022/05/04 00:48:55;;;;;;;3.67;3.37;;;15.20;31.30;;;;;;10307751;28;20227;-78
2022/05/04 00:54:01;;;;;;;3.47;3.23;;;15.30;32.00;;;;;;10313330;28;20605;-77
2022/05/04 00:59:04;;;;;;;3.87;3.57;;;15.30;31.50;;;;;;10303185;28;20242;-77
2022/05/04 01:04:09;;;;;;;3.40;3.20;;;15.40;31.60;;;;;;10310783;28;20227;-78
2022/05/04 01:09:12;;;;;;;3.53;3.23;;;15.40;31.80;;;;;;10304830;28;20692;-78
2022/05/04 01:14:17;;;;;;;3.93;3.63;;;15.40;31.50;;;;;;10304482;28;20245;-78
2022/05/04 01:19:21;;;;;;;3.80;3.50;;;15.50;31.50;;;;;;10310260;28;20230;-77
2022/05/04 01:24:26;;;;;;;4.00;3.70;;;15.50;31.80;;;;;;10308990;28;20237;-78
2022/05/04 01:29:29;;;;;;;3.20;3.00;;;15.50;31.70;;;;;;10299918;28;20277;-77
2022/05/04 01:34:32;;;;;;;3.40;3.10;;;15.50;31.30;;;;;;10307446;28;20627;-78
2022/05/04 01:39:37;;;;;;;3.40;3.10;;;15.50;31.70;;;;;;10303599;28;20704;-78
2022/05/04 01:44:42;;;;;;;3.43;3.23;;;15.50;32.40;;;;;;10301351;28;20581;-78
2022/05/04 01:49:45;;;;;;;2.97;2.77;;;15.50;31.90;;;;;;10311842;28;20842;-78
2022/05/04 01:54:49;;;;;;;3.20;3.00;;;15.50;31.60;;;;;;10309986;28;20232;-78
2022/05/04 01:59:55;;;;;;;3.07;2.77;;;15.50;32.50;;;;;;10303823;28;20227;-78
2022/05/04 02:04:59;;;;;;;3.37;3.17;;;15.50;32.40;;;;;;10313535;28;20230;-78
2022/05/04 02:10:04;;;;;;;3.20;3.00;;;15.40;32.50;;;;;;10302558;28;20237;-77
2022/05/04 02:15:09;;;;;;;3.27;2.97;;;15.40;32.50;;;;;;10304780;28;20604;-78
2022/05/04 02:20:13;;;;;;;3.40;3.20;;;15.50;32.50;;;;;;10306876;28;20238;-78
2022/05/04 02:25:17;;;;;;;3.10;2.90;;;15.40;32.50;;;;;;10302689;28;20227;-78
2022/05/04 02:30:21;;;;;;;3.70;3.50;;;15.40;32.70;;;;;;10305199;28;20309;-78
2022/05/04 02:40:46;;;;;;;3.70;3.40;;;15.30;32.40;;;;;;10302503;28;20237;-78
2022/05/04 02:45:50;;;;;;;3.60;3.30;;;15.20;33.20;;;;;;10305887;28;20231;-78
2022/05/04 02:50:56;;;;;;;3.60;3.03;;;15.20;33.20;;;;;;10300180;28;20227;-78
2022/05/04 02:56:01;;;;;;;3.20;3.00;;;15.20;33.00;;;;;;10310696;28;20595;-78
2022/05/04 03:02:26;;;;;;;3.47;3.10;;;15.20;33.60;;;;;;10317185;28;20245;-78
2022/05/04 03:06:33;;;;;;;3.03;2.83;;;15.20;33.90;;;;;;10313968;28;20246;-78
2022/05/04 03:11:57;;;;;;;3.83;3.50;;;15.30;33.10;;;;;;10313278;28;21101;-78
2022/05/04 03:17:00;;;;;;;3.07;2.80;;;15.30;33.40;;;;;;10316337;28;20317;-78
2022/05/04 03:22:04;;;;;;;3.43;3.20;;;15.30;32.80;;;;;;10332140;28;20226;-78
2022/05/04 03:27:08;;;;;;;4.43;3.03;;;15.30;33.00;;;;;;10315458;28;20228;-78
2022/05/04 03:32:12;;;;;;;2.50;2.40;;;15.30;32.80;;;;;;10313329;28;20614;-78
2022/05/04 03:37:15;;;;;;;2.60;2.40;;;15.20;32.30;;;;;;10315493;28;20238;-78
2022/05/04 03:42:19;;;;;;;3.00;2.80;;;15.20;32.30;;;;;;10312246;28;20238;-78
2022/05/04 03:47:22;;;;;;;4.10;2.97;;;15.10;32.70;;;;;;10314098;28;20250;-78
2022/05/04 03:52:26;;;;;;;4.40;4.00;;;15.00;32.20;;;;;;10319762;28;20239;-78
2022/05/04 03:57:30;;;;;;;5.90;5.10;;;14.90;32.20;;;;;;10320250;28;20231;-78
2022/05/04 04:02:33;;;;;;;9.07;7.00;;;14.90;33.00;;;;;;10315944;28;20729;-78
2022/05/04 04:07:37;;;;;;;18.03;14.93;;;14.80;32.60;;;;;;10320436;28;20238;-78
2022/05/04 04:12:41;;;;;;;12.90;10.90;;;14.80;32.70;;;;;;10308926;28;20223;-78
2022/05/04 04:17:46;;;;;;;9.83;8.70;;;14.70;32.90;;;;;;10318823;28;20314;-78
2022/05/04 04:22:49;;;;;;;9.40;8.50;;;14.70;32.50;;;;;;10315379;28;20223;-78
2022/05/04 04:27:54;;;;;;;8.97;8.07;;;14.60;32.70;;;;;;10306502;28;20284;-78
2022/05/04 04:32:57;;;;;;;8.27;7.47;;;14.60;32.90;;;;;;10311286;28;20235;-77
2022/05/04 04:38:01;;;;;;;9.27;7.37;;;14.60;32.70;;;;;;10311745;28;20571;-78
2022/05/04 04:43:05;;;;;;;12.03;10.83;;;14.60;33.00;;;;;;10309724;28;20226;-78
2022/05/04 04:48:09;;;;;;;9.10;8.10;;;14.50;34.00;;;;;;10315063;28;20236;-78
2022/05/04 04:53:13;;;;;;;8.70;7.90;;;14.50;33.00;;;;;;10323611;28;20243;-78
2022/05/04 04:58:17;;;;;;;7.00;6.40;;;14.50;33.60;;;;;;10320432;28;20238;-78
2022/05/04 05:03:20;;;;;;;6.47;5.97;;;14.50;34.20;;;;;;10314481;28;20235;-75
2022/05/04 05:08:24;;;;;;;7.43;5.93;;;14.40;33.90;;;;;;10308703;28;20273;-77
2022/05/04 05:13:32;;;;;;;5.90;4.43;;;14.40;34.90;;;;;;10307008;28;20222;-78
2022/05/04 05:18:35;;;;;;;5.10;4.60;;;14.40;35.60;;;;;;10304763;28;20611;-78
2022/05/04 05:23:39;;;;;;;4.27;3.90;;;14.50;35.20;;;;;;10312060;28;20250;-78
2022/05/04 05:28:43;;;;;;;4.37;3.97;;;14.50;35.20;;;;;;10320559;28;20249;-78
2022/05/04 05:33:46;;;;;;;4.77;4.30;;;14.60;35.90;;;;;;10312987;28;20233;-78
2022/05/04 05:38:49;;;;;;;4.33;3.93;;;14.60;35.60;;;;;;10311593;28;20219;-78
2022/05/04 05:43:54;;;;;;;4.20;3.80;;;14.60;35.70;;;;;;10318541;28;20219;-78
2022/05/04 05:48:57;;;;;;;4.30;3.90;;;14.80;36.50;;;;;;10308703;28;20237;-78
2022/05/04 05:54:00;;;;;;;4.23;3.90;;;14.90;36.10;;;;;;10312714;28;20234;-78
2022/05/04 05:59:06;;;;;;;4.60;4.20;;;15.00;36.20;;;;;;10348515;28;20236;-78
2022/05/04 06:04:10;;;;;;;4.07;3.70;;;15.10;37.00;;;;;;10357533;28;20238;-78
2022/05/04 06:09:13;;;;;;;4.57;4.10;;;15.20;36.50;;;;;;10350329;28;20809;-78
2022/05/04 06:14:18;;;;;;;5.17;4.77;;;15.40;36.60;;;;;;10357597;28;20710;-78
2022/05/04 06:19:21;;;;;;;4.70;4.30;;;15.50;37.20;;;;;;10348665;28;20838;-78
2022/05/04 06:24:25;;;;;;;4.03;3.63;;;15.70;37.00;;;;;;10360758;28;20230;-77
2022/05/04 06:34:47;;;;;;;4.00;3.70;;;16.00;37.30;;;;;;10361345;28;20222;-78
2022/05/04 06:39:50;;;;;;;4.10;3.80;;;16.10;36.80;;;;;;10349129;28;20240;-78
2022/05/04 06:44:56;;;;;;;5.07;4.07;;;16.30;36.80;;;;;;10354771;28;20229;-78
2022/05/04 06:49:59;;;;;;;4.60;3.53;;;16.40;37.10;;;;;;10356213;28;20233;-78
2022/05/04 06:55:03;;;;;;;4.27;3.87;;;16.50;36.60;;;;;;10349201;28;20230;-78
2022/05/04 07:00:09;;;;;;;4.23;3.93;;;16.60;36.80;;;;;;10356451;28;20234;-77
2022/05/04 07:05:12;;;;;;;4.00;3.70;;;16.70;37.20;;;;;;10339726;28;20253;-77
2022/05/04 07:10:15;;;;;;;4.00;3.70;;;16.90;36.90;;;;;;10348802;28;20238;-77
2022/05/04 07:15:20;;;;;;;4.67;4.27;;;17.10;36.90;;;;;;10350277;28;20222;-78
2022/05/04 07:20:23;;;;;;;4.30;4.00;;;17.20;37.90;;;;;;10347996;28;20239;-75
2022/05/04 07:25:27;;;;;;;4.10;3.53;;;17.40;36.70;;;;;;10344467;28;20236;-76
2022/05/04 07:30:31;;;;;;;3.03;2.83;;;17.60;36.90;;;;;;10341922;28;20234;-75
2022/05/04 07:35:34;;;;;;;2.87;2.67;;;17.80;36.70;;;;;;10340572;28;20223;-75
2022/05/04 07:46:00;;;;;;;2.43;2.23;;;18.40;36.00;;;;;;10347204;28;21178;-75
2022/05/04 07:51:03;;;;;;;2.53;2.33;;;18.60;35.30;;;;;;10353387;28;20230;-75
2022/05/04 07:56:07;;;;;;;2.90;2.70;;;18.80;35.50;;;;;;10349684;28;20233;-76
2022/05/04 08:06:32;;;;;;;2.63;2.43;;;19.00;35.00;;;;;;10348617;28;20228;-75
2022/05/04 08:11:35;;;;;;;2.30;2.20;;;19.10;34.70;;;;;;10358264;28;20222;-77
2022/05/04 08:16:40;;;;;;;2.30;2.20;;;19.20;34.30;;;;;;10354401;28;20230;-75
2022/05/04 08:21:46;;;;;;;2.47;1.97;;;19.20;34.00;;;;;;10347192;28;20280;-76
2022/05/04 08:26:50;;;;;;;2.40;2.20;;;19.20;33.80;;;;;;10353233;28;20223;-77
2022/05/04 08:31:54;;;;;;;2.00;1.90;;;19.30;34.00;;;;;;10343419;28;21162;-75
2022/05/04 08:36:57;;;;;;;1.73;1.63;;;19.40;33.80;;;;;;10350190;28;20222;-75
2022/05/04 08:42:01;;;;;;;1.80;1.70;;;19.50;34.00;;;;;;10348196;28;20226;-75
2022/05/04 08:47:12;;;;;;;1.60;1.50;;;19.70;33.80;;;;;;10348853;28;20229;-76
2022/05/04 08:52:15;;;;;;;1.90;1.80;;;20.00;33.30;;;;;;10345920;28;20229;-76
2022/05/04 08:57:18;;;;;;;1.80;1.70;;;20.20;33.50;;;;;;10357495;28;20257;-75
2022/05/04 09:02:23;;;;;;;1.60;1.50;;;20.50;33.30;;;;;;10352942;28;20238;-75
2022/05/04 09:07:26;;;;;;;1.97;1.73;;;20.70;33.20;;;;;;10360198;28;21196;-74
2022/05/04 09:12:33;;;;;;;1.40;1.40;;;20.90;32.50;;;;;;10350038;28;20226;-75
2022/05/04 09:17:39;;;;;;;1.47;1.40;;;21.20;32.10;;;;;;10348546;28;20571;-74
2022/05/04 09:22:43;;;;;;;1.67;1.63;;;21.50;31.90;;;;;;10347867;28;20717;-75
2022/05/04 09:27:47;;;;;;;2.00;1.80;;;21.70;32.00;;;;;;10344063;28;20719;-75
2022/05/04 09:32:52;;;;;;;2.67;1.90;;;21.90;32.00;;;;;;10347460;28;20836;-75
2022/05/04 09:48:42;;;;;;;1.50;1.40;;;22.50;30.50;;;;;;10343313;28;20237;-73
2022/05/04 09:53:46;;;;;;;1.77;1.67;;;22.70;30.70;;;;;;10342728;28;20223;-73
2022/05/04 09:58:50;;;;;;;1.77;1.67;;;22.90;30.80;;;;;;10339566;28;20226;-73
2022/05/04 10:03:59;;;;;;;1.67;1.57;;;23.00;30.30;;;;;;10338335;28;20238;-73
2022/05/04 10:09:04;;;;;;;2.17;1.90;;;23.00;29.80;;;;;;10343125;28;20234;-77
2022/05/04 10:14:10;;;;;;;2.37;2.17;;;23.00;29.90;;;;;;10344574;28;20231;-77
2022/05/04 10:19:20;;;;;;;1.87;1.77;;;22.90;30.30;;;;;;10350630;28;20222;-77
2022/05/04 10:24:26;;;;;;;1.90;1.80;;;22.60;30.20;;;;;;10344741;28;20345;-77
2022/05/04 10:35:10;;;;;;;6.53;2.67;;;21.70;31.30;;;;;;10338263;28;20238;-75
2022/05/04 10:40:13;;;;;;;3.30;1.90;;;21.20;30.00;;;;;;10337460;28;20229;-75
2022/05/04 10:45:16;;;;;;;2.40;1.80;;;20.60;29.20;;;;;;10341765;28;20226;-75
2022/05/04 10:50:21;;;;;;;4.00;1.83;;;19.90;29.80;;;;;;10337535;28;20226;-76
2022/05/04 10:55:24;;;;;;;3.47;1.90;;;19.30;30.50;;;;;;10344340;28;20226;-77
2022/05/04 11:00:28;;;;;;;5.93;2.20;;;19.00;31.40;;;;;;10344206;28;20710;-78
2022/05/04 11:05:47;;;;;;;2.40;1.97;;;18.90;32.10;;;;;;10333946;28;20238;-78
2022/05/04 11:10:52;;;;;;;4.10;2.10;;;18.80;32.60;;;;;;10344153;28;20237;-78
2022/05/04 11:15:55;;;;;;;4.87;1.90;;;18.70;33.30;;;;;;10348274;28;20245;-80
2022/05/04 11:21:05;;;;;;;2.07;1.47;;;18.80;34.40;;;;;;10348714;28;20298;-78
2022/05/04 11:26:18;;;;;;;1.50;1.40;;;18.90;34.10;;;;;;10346722;28;20228;-75
2022/05/04 11:31:22;;;;;;;1.60;1.50;;;19.30;33.30;;;;;;10340056;28;20724;-75
2022/05/04 11:36:27;;;;;;;1.73;1.50;;;19.70;34.10;;;;;;10351138;28;20980;-75
2022/05/04 11:41:30;;;;;;;1.30;1.30;;;20.10;33.10;;;;;;10353739;28;20238;-75
2022/05/04 11:46:33;;;;;;;1.47;1.37;;;20.50;32.70;;;;;;10348684;28;20228;-75
2022/05/04 11:51:38;;;;;;;1.83;1.67;;;20.90;32.60;;;;;;10358286;28;20321;-75
2022/05/04 11:56:41;;;;;;;2.00;1.80;;;21.20;32.30;;;;;;10350274;28;20241;-75
2022/05/04 12:01:45;;;;;;;2.00;1.90;;;21.40;32.40;;;;;;10354360;28;20596;-75
2022/05/04 12:06:50;;;;;;;2.67;1.80;;;21.60;31.50;;;;;;10337805;28;20222;-75
2022/05/04 12:11:54;;;;;;;1.70;1.60;;;21.70;31.50;;;;;;10352937;28;20219;-75
2022/05/04 12:16:57;;;;;;;1.93;1.83;;;21.80;31.60;;;;;;10350119;28;21020;-75
2022/05/04 12:22:07;;;;;;;2.00;1.90;;;21.90;31.50;;;;;;10341718;28;20322;-75
2022/05/04 12:27:10;;;;;;;2.10;2.00;;;22.10;31.10;;;;;;10345227;28;20230;-75
2022/05/04 12:37:35;;;;;;;1.80;1.70;;;22.20;31.20;;;;;;10350726;28;20222;-75
2022/05/04 12:42:39;;;;;;;2.00;1.80;;;22.40;31.10;;;;;;10347633;28;20604;-74
2022/05/04 12:47:42;;;;;;;1.80;1.70;;;22.50;30.90;;;;;;10349656;28;20314;-74
2022/05/04 12:52:48;;;;;;;2.20;2.10;;;22.60;30.20;;;;;;10348156;28;20598;-74
2022/05/04 12:57:51;;;;;;;1.90;1.80;;;22.70;29.70;;;;;;10348134;28;20246;-74
2022/05/04 13:02:54;;;;;;;2.00;1.90;;;22.80;30.00;;;;;;10346573;28;20269;-75
2022/05/04 13:07:59;;;;;;;1.87;1.60;;;22.90;29.40;;;;;;10349069;28;20234;-74
2022/05/04 13:13:02;;;;;;;2.60;1.60;;;23.00;28.70;;;;;;10340857;28;20601;-76
2022/05/04 13:18:10;;;;;;;3.50;1.90;;;23.20;29.00;;;;;;10335381;28;20279;-74
2022/05/04 13:23:15;;;;;;;1.63;1.53;;;23.30;28.60;;;;;;10345204;28;20234;-74
2022/05/04 13:28:18;;;;;;;2.07;1.97;;;23.40;28.20;;;;;;10334384;28;20241;-74
2022/05/04 13:33:21;;;;;;;2.00;1.90;;;23.60;28.40;;;;;;10342767;28;20957;-74
2022/05/04 13:38:26;;;;;;;1.83;1.73;;;23.60;28.50;;;;;;10347723;28;20262;-74
2022/05/04 13:43:30;;;;;;;1.90;1.80;;;23.70;28.30;;;;;;10342318;28;20238;-74
2022/05/04 13:48:33;;;;;;;2.03;1.93;;;23.60;27.80;;;;;;10344151;28;20250;-75
2022/05/04 13:53:38;;;;;;;2.20;1.70;;;23.60;27.80;;;;;;10342815;28;20303;-74
2022/05/04 13:58:41;;;;;;;2.20;2.00;;;23.20;27.50;;;;;;10344332;28;20700;-74
2022/05/04 14:03:44;;;;;;;1.97;1.87;;;22.70;27.10;;;;;;10343312;28;20226;-74
2022/05/04 14:08:49;;;;;;;2.23;2.10;;;22.20;27.80;;;;;;10342394;28;20332;-74
2022/05/04 14:15:01;;;;;;;2.20;2.00;;;21.70;27.90;;;;;;10347787;28;20229;-74
2022/05/04 14:19:17;;;;;;;3.33;2.10;;;21.40;29.20;;;;;;10342683;28;20813;-75
2022/05/04 14:24:25;;;;;;;2.60;2.40;;;21.20;28.80;;;;;;10338313;28;20249;-75
2022/05/04 14:29:28;;;;;;;2.13;2.03;;;21.00;28.90;;;;;;10344518;28;20716;-74
2022/05/04 14:34:32;;;;;;;2.20;2.10;;;20.80;29.00;;;;;;10341854;28;20234;-75
2022/05/04 14:39:36;;;;;;;3.47;2.00;;;20.60;29.40;;;;;;10348571;28;20231;-74
2022/05/04 14:44:39;;;;;;;2.23;2.13;;;20.40;29.80;;;;;;10352035;28;20265;-75
2022/05/04 14:49:45;;;;;;;2.10;2.00;;;20.30;30.00;;;;;;10349731;28;20234;-75
2022/05/04 14:54:50;;;;;;;2.00;1.90;;;20.30;30.40;;;;;;10341953;28;20691;-75
2022/05/04 14:59:54;;;;;;;2.30;2.00;;;20.40;30.90;;;;;;10343796;28;20259;-75
2022/05/04 15:05:05;;;;;;;2.40;2.20;;;20.50;30.70;;;;;;10335979;28;20309;-75
2022/05/04 15:10:10;;;;;;;2.90;2.70;;;20.70;31.00;;;;;;10341954;28;20690;-75
2022/05/04 15:15:15;;;;;;;3.17;2.97;;;20.90;31.00;;;;;;10338752;28;20254;-75
2022/05/04 15:20:19;;;;;;;2.70;2.50;;;21.00;30.20;;;;;;10327221;28;20365;-75
2022/05/04 15:25:26;;;;;;;2.50;2.30;;;21.10;30.20;;;;;;10330151;28;20250;-75
2022/05/04 15:30:30;;;;;;;2.10;2.00;;;21.20;30.80;;;;;;10325049;28;20233;-74
2022/05/04 15:35:35;;;;;;;2.30;2.20;;;21.30;30.50;;;;;;10331204;28;20237;-74
2022/05/04 15:40:41;;;;;;;2.60;1.97;;;21.50;30.60;;;;;;10331327;28;20226;-74
2022/05/04 15:45:45;;;;;;;2.13;2.03;;;21.60;30.40;;;;;;10331543;28;20226;-75
2022/05/04 15:50:50;;;;;;;3.37;2.30;;;21.80;30.50;;;;;;10330786;28;20241;-75
2022/05/04 15:55:57;;;;;;;2.00;1.90;;;21.80;30.20;;;;;;10330953;28;20264;-75
2022/05/04 16:01:02;;;;;;;2.73;1.97;;;22.00;30.10;;;;;;10336516;28;20231;-75
2022/05/04 16:06:10;;;;;;;2.87;2.07;;;22.00;30.20;;;;;;10343356;28;20362;-75
2022/05/04 16:11:17;;;;;;;2.83;2.37;;;22.10;30.10;;;;;;10344189;28;20222;-75
2022/05/04 16:16:22;;;;;;;2.10;2.00;;;22.10;30.00;;;;;;10351628;28;20222;-76
2022/05/04 16:21:49;;;;;;;2.13;2.03;;;22.10;30.00;;;;;;10347362;28;20596;-75
2022/05/04 16:26:58;;;;;;;2.20;2.10;;;22.00;29.90;;;;;;10334461;28;20609;-74
2022/05/04 16:32:04;;;;;;;2.00;1.90;;;22.00;30.00;;;;;;10327161;28;20230;-76
2022/05/04 16:37:10;;;;;;;2.67;2.30;;;22.00;30.10;;;;;;10329788;28;20241;-76
2022/05/04 16:42:19;;;;;;;1.97;1.87;;;22.00;30.20;;;;;;10328346;28;20238;-74
2022/05/04 16:47:24;;;;;;;2.40;1.90;;;21.90;30.00;;;;;;10329066;28;20241;-74
2022/05/04 16:52:28;;;;;;;2.67;2.10;;;22.00;30.20;;;;;;10331535;28;20234;-74
2022/05/04 16:57:35;;;;;;;3.90;2.10;;;21.80;30.00;;;;;;10324741;28;20280;-74
2022/05/04 17:02:40;;;;;;;2.57;2.03;;;21.80;30.00;;;;;;10328480;28;20309;-75
2022/05/04 17:07:50;;;;;;;2.00;1.90;;;21.80;30.00;;;;;;10326650;28;20233;-74
2022/05/04 17:12:57;;;;;;;2.10;2.00;;;21.80;30.20;;;;;;10315011;28;20226;-74
2022/05/04 17:18:02;;;;;;;2.37;2.27;;;21.70;30.20;;;;;;10324609;28;20727;-74
2022/05/04 17:23:08;;;;;;;2.53;2.30;;;21.70;30.30;;;;;;10324783;28;20234;-75
2022/05/04 17:28:16;;;;;;;2.40;2.20;;;21.70;30.80;;;;;;10324919;28;20234;-74
2022/05/04 17:38:42;;;;;;;2.93;2.00;;;21.60;30.00;;;;;;10327436;28;20234;-74
2022/05/04 17:43:49;;;;;;;2.27;2.03;;;21.50;30.50;;;;;;10328770;28;20273;-74
2022/05/04 17:48:57;;;;;;;2.30;1.90;;;21.40;30.60;;;;;;10322204;28;20237;-74
2022/05/04 17:54:02;;;;;;;2.30;2.20;;;21.40;30.30;;;;;;10322995;28;20493;-74
2022/05/04 17:59:23;;;;;;;2.10;2.00;;;21.30;30.20;;;;;;10283478;28;20273;-74
2022/05/04 18:04:30;;;;;;;3.13;2.83;;;21.20;30.30;;;;;;10319051;28;20317;-74
2022/05/04 18:09:35;;;;;;;3.27;2.60;;;21.10;30.30;;;;;;10327837;28;20307;-73
2022/05/04 18:14:42;;;;;;;2.40;2.30;;;20.90;30.60;;;;;;10330566;28;20222;-74
2022/05/04 18:19:47;;;;;;;2.50;2.30;;;20.90;30.90;;;;;;10322818;28;20365;-73
2022/05/04 18:24:55;;;;;;;2.60;2.40;;;20.70;30.70;;;;;;10326895;28;20260;-73
2022/05/04 18:30:01;;;;;;;2.40;2.30;;;20.70;30.80;;;;;;10327224;28;20738;-74
2022/05/04 18:41:30;;;;;;;3.20;2.50;;;20.30;30.90;;;;;;10255765;28;20739;-74
2022/05/04 18:53:29;;;;;;;4.50;4.10;;;20.30;31.40;;;;;;10250404;28;20310;-74
2022/05/04 18:59:18;;;;;;;4.03;3.40;;;20.20;32.20;;;;;;10243688;28;20231;-73
2022/05/04 19:04:41;;;;;;;3.53;3.23;;;20.10;32.10;;;;;;10309404;28;20229;-78
2022/05/04 19:10:00;;;;;;;3.77;3.53;;;20.10;32.70;;;;;;10304614;28;20234;-78
2022/05/04 19:15:15;;;;;;;3.37;2.90;;;20.10;32.00;;;;;;10258406;28;20219;-78
2022/05/04 19:38:35;;;;;;;3.43;2.70;;;19.40;31.80;;;;;;10331764;28;20266;-78
2022/05/04 19:43:58;;;;;;;2.30;2.20;;;19.30;32.30;;;;;;10331668;28;20233;-73
2022/05/04 19:49:15;;;;;;;2.20;2.10;;;19.10;31.80;;;;;;10304112;28;20234;-74
2022/05/04 19:54:35;;;;;;;2.30;2.17;;;19.10;32.00;;;;;;10308206;28;21217;-80
2022/05/04 19:59:41;;;;;;;3.23;2.40;;;18.90;32.10;;;;;;10345469;28;20234;-81
2022/05/04 20:04:49;;;;;;;2.57;2.30;;;18.70;32.20;;;;;;10346764;28;20229;-79
2022/05/04 20:10:16;;;;;;;2.33;2.23;;;18.70;32.60;;;;;;10347571;28;20235;-79
2022/05/04 20:20:59;;;;;;;2.07;1.70;;;18.40;32.60;;;;;;10285959;28;20261;-73
2022/05/04 20:26:43;;;;;;;1.50;1.40;;;18.30;32.40;;;;;;10247355;28;20234;-75
2022/05/04 20:31:52;;;;;;;1.70;1.60;;;18.30;32.60;;;;;;10330746;28;20296;-79
2022/05/04 20:38:58;;;;;;;1.63;1.53;;;18.20;32.30;;;;;;10319596;28;20258;-78
2022/05/04 20:42:58;;;;;;;1.80;1.50;;;18.10;32.20;;;;;;10343341;28;20308;-78
2022/05/04 20:48:27;;;;;;;1.60;1.40;;;18.00;33.20;;;;;;10336278;28;20233;-78
2022/05/04 23:09:45;;;;;;;1.90;1.80;;;16.50;35.20;;;;;;10082340;29;20237;-78
2022/05/04 23:34:09;;;;;;;2.57;1.90;;;16.10;34.90;;;;;;10313858;28;20231;-79
2022/05/04 23:39:52;;;;;;;1.87;1.77;;;16.00;35.00;;;;;;10265928;28;20716;-79
2022/05/04 23:46:13;;;;;;;1.57;1.47;;;16.00;35.00;;;;;;10298181;28;20241;-79
2022/05/04 23:52:33;;;;;;;2.03;1.93;;;15.90;34.80;;;;;;10320650;28;20234;-79
